Time;durP1;ratioP1;P1;durP2;ratioP2;P2;SDS_P1;SDS_P2;PMS_P1;PMS_P2;Temp;Humidity;BMP_temperature;BMP_pressure;BME280_temperature;BME280_humidity;BME280_pressure;Samples;Min_cycle;Max_cycle;Signal;HPM_P1;HPM_P2
2021/10/25 04:01:24;;;;;;;5.32;5.03;;;4.40;99.90;;;;;;5627777;23;20319;-69
2021/10/25 04:26:12;;;;;;;5.88;5.20;;;4.20;99.90;;;;;;4952017;29;20652;-69
2021/10/25 04:28:40;;;;;;;5.90;4.95;;;4.20;99.90;;;;;;4951618;29;20205;-70
2021/10/25 04:31:07;;;;;;;5.65;5.25;;;4.20;99.90;;;;;;4955043;28;20316;-69
2021/10/25 04:33:35;;;;;;;6.30;5.80;;;4.20;99.90;;;;;;4956001;29;20288;-70
2021/10/25 04:36:02;;;;;;;6.50;5.90;;;4.20;99.90;;;;;;4955887;29;20219;-69
2021/10/25 04:38:29;;;;;;;6.22;5.72;;;4.10;99.90;;;;;;4955589;29;20573;-68
2021/10/25 04:40:55;;;;;;;6.30;5.72;;;4.10;99.90;;;;;;4955650;29;20586;-69
2021/10/25 04:43:22;;;;;;;5.20;4.90;;;4.10;99.90;;;;;;4955371;29;20622;-70
2021/10/25 04:45:50;;;;;;;7.70;5.20;;;4.00;99.90;;;;;;4953916;28;20240;-70
2021/10/25 04:48:18;;;;;;;6.40;5.85;;;4.00;99.90;;;;;;4955043;29;20213;-70
2021/10/25 04:50:46;;;;;;;6.88;5.63;;;4.00;99.90;;;;;;4955501;29;20267;-70
2021/10/25 04:53:13;;;;;;;6.15;5.65;;;4.00;99.90;;;;;;4955251;29;20216;-72
2021/10/25 04:55:40;;;;;;;7.90;5.82;;;4.00;99.90;;;;;;4955718;29;20212;-70
2021/10/25 04:58:06;;;;;;;12.10;5.60;;;4.00;99.90;;;;;;4954622;29;20232;-70
2021/10/25 05:00:33;;;;;;;8.07;5.60;;;4.00;99.90;;;;;;4955075;29;20241;-71
2021/10/25 05:03:00;;;;;;;6.72;6.22;;;4.00;99.90;;;;;;4954631;29;20213;-70
2021/10/25 05:05:28;;;;;;;5.90;5.50;;;4.00;99.90;;;;;;4955696;29;20221;-70
2021/10/25 05:07:55;;;;;;;7.43;6.07;;;4.00;99.90;;;;;;4954684;29;20298;-70
2021/10/25 05:10:22;;;;;;;6.43;5.93;;;4.00;99.90;;;;;;4955288;29;20214;-70
2021/10/25 05:12:49;;;;;;;9.30;6.25;;;4.00;99.90;;;;;;4954659;29;20209;-71
2021/10/25 05:15:16;;;;;;;6.13;5.57;;;4.00;99.90;;;;;;4955529;29;20232;-70
2021/10/25 05:17:42;;;;;;;8.38;5.38;;;4.00;99.90;;;;;;4954195;29;20205;-70
2021/10/25 05:20:10;;;;;;;7.22;6.05;;;3.90;99.90;;;;;;4955456;29;20210;-70
2021/10/25 05:22:37;;;;;;;7.38;5.63;;;3.90;99.90;;;;;;4954901;28;20603;-70
2021/10/25 05:25:06;;;;;;;6.28;5.68;;;3.90;99.90;;;;;;4954854;29;20205;-71
2021/10/25 05:27:32;;;;;;;5.53;5.10;;;3.90;99.90;;;;;;4954974;28;20616;-70
2021/10/25 05:29:59;;;;;;;8.05;7.03;;;3.80;99.90;;;;;;4954619;29;20205;-70
2021/10/25 05:32:26;;;;;;;6.13;5.55;;;3.80;99.90;;;;;;4954452;29;20233;-71
2021/10/25 05:34:53;;;;;;;7.63;7.03;;;3.80;99.90;;;;;;4953722;29;20320;-70
2021/10/25 05:37:19;;;;;;;7.60;6.25;;;3.80;99.90;;;;;;4954568;29;20233;-70
2021/10/25 05:39:46;;;;;;;8.15;6.00;;;3.80;99.90;;;;;;4954367;29;20964;-71
2021/10/25 05:42:14;;;;;;;7.70;7.00;;;3.70;99.90;;;;;;4953636;28;20221;-70
2021/10/25 05:44:41;;;;;;;7.35;6.13;;;3.70;99.90;;;;;;4954401;29;20213;-70
2021/10/25 05:47:08;;;;;;;6.95;6.35;;;3.70;99.90;;;;;;4953680;29;20893;-70
2021/10/25 05:49:34;;;;;;;7.88;6.75;;;3.70;99.90;;;;;;4954312;29;20217;-70
2021/10/25 05:52:01;;;;;;;8.90;6.60;;;3.70;99.90;;;;;;4954103;29;20248;-70
2021/10/25 05:54:28;;;;;;;8.07;6.70;;;3.70;99.90;;;;;;4954919;29;20240;-70
2021/10/25 05:56:55;;;;;;;9.80;6.80;;;3.70;99.90;;;;;;4954145;29;20206;-70
2021/10/25 05:59:25;;;;;;;9.55;7.25;;;3.70;99.90;;;;;;4953801;29;20209;-70
2021/10/25 06:01:58;;;;;;;7.38;6.20;;;3.70;99.90;;;;;;4953438;29;20715;-72
2021/10/25 06:04:25;;;;;;;7.95;7.25;;;3.70;99.90;;;;;;4954486;28;20217;-70
2021/10/25 06:06:52;;;;;;;10.15;7.10;;;3.70;99.90;;;;;;4954025;28;20206;-69
2021/10/25 06:09:20;;;;;;;6.45;5.60;;;3.70;99.90;;;;;;4953856;29;20205;-69
2021/10/25 06:11:47;;;;;;;8.52;6.90;;;3.70;99.90;;;;;;4953915;29;20315;-69
2021/10/25 06:14:16;;;;;;;7.65;6.78;;;3.70;99.90;;;;;;4953676;29;20209;-70
2021/10/25 06:16:47;;;;;;;10.15;6.65;;;3.70;99.90;;;;;;4953406;29;20201;-72
2021/10/25 06:19:15;;;;;;;7.95;7.35;;;3.70;99.90;;;;;;4953648;29;20312;-70
2021/10/25 06:21:42;;;;;;;7.22;6.53;;;3.70;99.90;;;;;;4953717;29;20221;-70
2021/10/25 06:24:09;;;;;;;7.65;6.93;;;3.70;99.90;;;;;;4950940;28;20215;-71
2021/10/25 06:26:35;;;;;;;6.75;5.80;;;3.70;99.90;;;;;;4959448;28;20204;-70
2021/10/25 06:29:02;;;;;;;6.88;5.85;;;3.70;99.90;;;;;;4953567;28;20568;-70
2021/10/25 06:31:29;;;;;;;7.07;6.38;;;3.70;99.90;;;;;;4952820;29;20234;-71
2021/10/25 06:33:59;;;;;;;8.07;7.25;;;3.70;99.90;;;;;;4953381;29;20213;-71
2021/10/25 06:36:26;;;;;;;8.40;6.70;;;3.70;99.90;;;;;;4953588;29;20209;-70
2021/10/25 06:38:56;;;;;;;8.00;7.30;;;3.70;99.90;;;;;;4953477;29;20288;-70
2021/10/25 06:41:24;;;;;;;6.72;6.15;;;3.70;99.90;;;;;;4953215;29;20229;-70
2021/10/25 06:43:51;;;;;;;8.30;7.38;;;3.80;99.90;;;;;;4953285;29;20615;-70
2021/10/25 06:46:19;;;;;;;7.38;6.50;;;3.80;99.90;;;;;;4952706;29;20204;-70
2021/10/25 06:48:46;;;;;;;7.28;6.63;;;3.80;99.90;;;;;;4953627;29;20650;-74
2021/10/25 06:51:14;;;;;;;7.95;7.05;;;3.90;99.90;;;;;;4952874;28;20229;-70
2021/10/25 06:53:41;;;;;;;8.55;7.75;;;4.00;99.90;;;;;;4953149;28;20593;-70
2021/10/25 06:56:08;;;;;;;16.77;8.00;;;4.00;99.90;;;;;;4952150;29;20210;-71
2021/10/25 06:58:35;;;;;;;12.90;8.27;;;4.10;99.90;;;;;;4952744;29;20635;-70
2021/10/25 07:01:02;;;;;;;7.65;6.93;;;4.10;99.90;;;;;;4952127;29;20303;-72
2021/10/25 07:03:29;;;;;;;7.88;7.13;;;4.10;99.90;;;;;;4953524;29;20251;-70
2021/10/25 07:06:00;;;;;;;8.23;7.32;;;4.20;99.90;;;;;;4952709;29;20214;-71
2021/10/25 07:08:29;;;;;;;8.70;7.90;;;4.20;99.90;;;;;;4952843;29;20213;-73
2021/10/25 07:10:56;;;;;;;8.80;7.07;;;4.20;99.90;;;;;;4952653;29;20684;-70
2021/10/25 07:13:24;;;;;;;8.95;7.22;;;4.30;99.90;;;;;;4952280;29;20233;-70
2021/10/25 07:15:53;;;;;;;11.25;8.10;;;4.30;99.90;;;;;;4952569;29;20224;-70
2021/10/25 07:18:24;;;;;;;10.00;8.30;;;4.40;99.90;;;;;;4952970;29;20529;-70
2021/10/25 07:26:02;;;;;;;8.18;7.38;;;5.10;99.90;;;;;;4930004;29;20225;-70
2021/10/25 07:59:59;;;;;;;5.35;4.90;;;6.10;99.90;;;;;;4952559;28;20228;-71
2021/10/25 08:05:31;;;;;;;6.22;5.75;;;6.10;99.90;;;;;;4951590;29;20689;-71
2021/10/25 08:08:06;;;;;;;6.60;5.53;;;6.20;99.90;;;;;;4952277;29;20502;-72
2021/10/25 08:10:37;;;;;;;6.05;5.22;;;6.20;99.90;;;;;;4952371;29;20259;-69
2021/10/25 08:13:11;;;;;;;6.63;4.90;;;6.20;99.90;;;;;;4950981;29;20235;-70
2021/10/25 08:15:41;;;;;;;6.15;5.57;;;6.30;99.90;;;;;;4952039;29;20296;-69
2021/10/25 08:18:19;;;;;;;5.60;5.20;;;6.30;99.90;;;;;;4951721;29;20236;-73
2021/10/25 08:20:46;;;;;;;7.03;5.68;;;6.40;99.90;;;;;;4952440;29;20260;-72
2021/10/25 08:23:13;;;;;;;5.13;4.75;;;6.40;99.90;;;;;;4950883;29;20331;-69
2021/10/25 08:25:40;;;;;;;5.63;4.65;;;6.50;99.90;;;;;;4947816;28;20573;-71
2021/10/25 08:28:08;;;;;;;4.95;4.55;;;6.60;99.90;;;;;;4953849;28;20213;-70
2021/10/25 08:30:35;;;;;;;8.85;7.63;;;6.70;99.90;;;;;;4951475;29;20233;-70
2021/10/25 08:33:14;;;;;;;8.68;5.72;;;6.80;99.90;;;;;;4951874;29;20703;-69
2021/10/25 08:35:53;;;;;;;5.43;4.93;;;6.90;99.90;;;;;;4951925;28;20221;-70
2021/10/25 08:41:04;;;;;;;5.82;5.32;;;7.00;99.90;;;;;;4951675;29;20304;-70
2021/10/25 08:43:33;;;;;;;5.10;4.85;;;7.20;99.90;;;;;;4951581;29;20514;-70
2021/10/25 08:46:02;;;;;;;5.63;5.22;;;7.30;99.90;;;;;;4951146;29;20210;-71
2021/10/25 08:48:30;;;;;;;5.68;5.15;;;7.40;99.90;;;;;;4949241;29;20202;-69
2021/10/25 08:50:57;;;;;;;6.63;4.80;;;7.50;99.90;;;;;;4951809;29;20714;-70
2021/10/25 08:53:24;;;;;;;6.70;4.55;;;7.70;99.90;;;;;;4953059;28;20229;-70
2021/10/25 08:55:51;;;;;;;6.10;5.45;;;7.80;99.90;;;;;;4955819;28;20301;-70
2021/10/25 08:58:18;;;;;;;5.25;4.97;;;7.90;99.90;;;;;;4946317;29;20295;-70
2021/10/25 09:00:50;;;;;;;4.38;4.07;;;8.00;99.90;;;;;;4951088;29;20580;-70
2021/10/25 09:03:20;;;;;;;5.18;4.78;;;8.20;99.90;;;;;;4951041;29;20260;-70
2021/10/25 09:05:55;;;;;;;7.20;4.55;;;8.30;99.90;;;;;;4951855;29;20205;-70
2021/10/25 09:08:22;;;;;;;4.60;4.30;;;8.40;99.90;;;;;;4951529;29;20220;-72
2021/10/25 09:10:49;;;;;;;4.13;3.90;;;8.50;99.90;;;;;;4951535;28;20617;-71
2021/10/25 09:13:20;;;;;;;5.25;4.75;;;8.50;99.90;;;;;;4950914;28;20233;-69
2021/10/25 09:15:51;;;;;;;5.35;4.95;;;8.60;99.90;;;;;;4950855;28;20596;-70
2021/10/25 09:18:19;;;;;;;4.55;4.35;;;8.60;99.90;;;;;;4953896;28;20212;-70
2021/10/25 09:20:49;;;;;;;4.93;4.53;;;8.70;99.90;;;;;;4955151;28;20240;-69
2021/10/25 09:23:17;;;;;;;5.25;4.05;;;8.70;99.90;;;;;;4954202;28;20209;-70
2021/10/25 09:25:45;;;;;;;5.22;4.70;;;8.80;99.90;;;;;;4954937;28;20213;-69
2021/10/25 09:28:19;;;;;;;5.00;4.63;;;8.80;99.90;;;;;;4953830;29;20208;-70
2021/10/25 09:30:49;;;;;;;4.47;4.07;;;8.90;99.90;;;;;;4953773;28;20243;-70
2021/10/25 09:33:21;;;;;;;6.32;4.60;;;9.00;99.90;;;;;;4953896;28;20228;-70
2021/10/25 09:35:53;;;;;;;4.93;4.35;;;9.10;99.90;;;;;;4952787;28;20201;-72
2021/10/25 09:38:25;;;;;;;5.68;4.88;;;9.20;99.90;;;;;;4953192;28;20201;-73
2021/10/25 09:46:37;;;;;;;5.00;4.70;;;9.70;99.90;;;;;;4924827;29;20201;-71
2021/10/25 09:49:07;;;;;;;6.25;4.95;;;9.90;99.90;;;;;;4945602;29;20217;-72
2021/10/25 09:51:37;;;;;;;6.45;5.93;;;10.00;99.90;;;;;;4957585;29;20251;-71
2021/10/25 09:54:04;;;;;;;5.60;5.20;;;10.10;99.90;;;;;;4957525;29;20233;-72
2021/10/25 09:56:34;;;;;;;7.72;5.60;;;10.10;99.90;;;;;;4958534;29;20292;-72
2021/10/25 09:59:17;;;;;;;8.38;5.45;;;10.10;99.90;;;;;;4954649;29;20205;-72
2021/10/25 10:01:45;;;;;;;6.20;5.63;;;10.10;99.90;;;;;;4953432;29;20256;-73
2021/10/25 10:04:12;;;;;;;6.18;5.03;;;10.20;99.90;;;;;;4954262;29;20217;-74
2021/10/25 10:06:40;;;;;;;5.90;5.50;;;10.20;99.90;;;;;;4953848;29;20286;-72
2021/10/25 10:09:07;;;;;;;5.88;5.47;;;10.20;99.90;;;;;;4953889;29;20205;-73
2021/10/25 10:11:34;;;;;;;5.97;5.57;;;10.30;99.90;;;;;;4958318;28;20232;-73
2021/10/25 10:14:02;;;;;;;6.25;5.60;;;10.40;99.90;;;;;;4952845;29;20268;-73
2021/10/25 10:16:29;;;;;;;8.77;6.20;;;10.50;99.90;;;;;;4955881;23;20234;-71
2021/10/25 10:19:02;;;;;;;5.85;5.35;;;10.60;99.90;;;;;;4937728;29;20280;-72
2021/10/25 10:21:29;;;;;;;7.07;6.40;;;10.70;99.90;;;;;;4942658;29;20206;-70
2021/10/25 10:24:04;;;;;;;7.03;6.30;;;10.70;99.90;;;;;;4940652;28;20209;-73
2021/10/25 10:26:32;;;;;;;6.78;5.43;;;10.80;99.90;;;;;;4927022;29;20240;-73
2021/10/25 10:29:09;;;;;;;8.27;6.18;;;10.80;99.90;;;;;;4915142;29;20207;-71
2021/10/25 10:31:36;;;;;;;7.05;6.35;;;10.80;99.90;;;;;;4913900;29;20206;-73
2021/10/25 10:34:12;;;;;;;6.32;5.65;;;10.90;99.90;;;;;;4915745;29;20373;-72
2021/10/25 10:36:51;;;;;;;6.63;5.78;;;10.90;99.90;;;;;;4921066;29;20238;-74
2021/10/25 10:39:19;;;;;;;8.73;6.22;;;10.90;99.90;;;;;;4909518;29;20526;-71
2021/10/25 10:41:54;;;;;;;5.13;4.70;;;10.90;99.90;;;;;;4908603;29;20293;-72
2021/10/25 10:44:22;;;;;;;5.05;4.70;;;10.90;99.90;;;;;;4910874;29;20651;-73
2021/10/25 10:46:52;;;;;;;6.82;5.28;;;10.90;99.90;;;;;;4903648;29;20250;-72
2021/10/25 10:49:23;;;;;;;4.93;4.43;;;10.90;99.90;;;;;;4915217;29;20583;-72
2021/10/25 10:52:23;;;;;;;5.18;4.80;;;10.90;99.90;;;;;;4915750;29;20216;-72
2021/10/25 10:54:59;;;;;;;5.40;4.90;;;11.00;99.90;;;;;;4915470;29;20206;-73
2021/10/25 11:00:10;;;;;;;5.80;5.20;;;11.10;99.90;;;;;;4910136;29;20209;-72
2021/10/25 11:02:38;;;;;;;4.75;4.45;;;11.20;99.90;;;;;;4921287;29;20213;-72
2021/10/25 11:05:09;;;;;;;4.90;4.65;;;11.30;99.90;;;;;;4921511;29;20202;-71
2021/10/25 11:07:39;;;;;;;4.93;4.53;;;11.40;99.90;;;;;;4926265;29;20209;-74
2021/10/25 11:10:10;;;;;;;4.68;4.38;;;11.50;99.90;;;;;;4909935;29;20672;-71
2021/10/25 11:12:42;;;;;;;5.82;4.43;;;11.60;99.90;;;;;;4913575;29;20302;-71
2021/10/25 11:15:12;;;;;;;4.60;4.30;;;11.60;99.90;;;;;;4903560;29;20637;-72
2021/10/25 11:17:38;;;;;;;4.60;4.30;;;11.70;99.90;;;;;;4910791;29;20279;-72
2021/10/25 11:20:08;;;;;;;4.30;3.90;;;11.80;99.90;;;;;;4914914;29;20209;-72
2021/10/25 11:22:38;;;;;;;6.55;4.50;;;11.70;99.90;;;;;;4914447;29;20215;-71
2021/10/25 11:25:06;;;;;;;4.40;4.20;;;11.70;99.90;;;;;;4913834;29;20230;-72
2021/10/25 11:27:35;;;;;;;4.80;4.50;;;11.70;99.90;;;;;;4913841;29;20211;-72
2021/10/25 11:30:08;;;;;;;4.43;4.22;;;11.70;99.90;;;;;;4922597;29;20207;-72
2021/10/25 11:32:36;;;;;;;4.70;4.30;;;11.70;99.90;;;;;;4913106;29;20230;-72
2021/10/25 11:35:05;;;;;;;8.85;4.78;;;11.70;99.90;;;;;;4914749;29;20223;-72
2021/10/25 11:37:33;;;;;;;4.82;4.53;;;11.80;99.90;;;;;;4914697;29;20222;-71
2021/10/25 11:40:05;;;;;;;4.15;3.58;;;11.80;99.90;;;;;;4913777;29;20207;-70
2021/10/25 11:42:33;;;;;;;4.82;4.43;;;11.80;99.90;;;;;;4914907;29;20206;-69
2021/10/25 11:45:01;;;;;;;4.25;3.85;;;12.00;99.90;;;;;;4909416;29;20203;-71
2021/10/25 11:47:30;;;;;;;4.82;4.60;;;12.00;99.90;;;;;;4913258;29;20273;-69
2021/10/25 11:50:00;;;;;;;4.13;3.83;;;12.10;99.90;;;;;;4914726;29;20234;-69
2021/10/25 11:52:33;;;;;;;4.07;3.87;;;12.20;99.90;;;;;;4914702;29;20462;-70
2021/10/25 11:55:01;;;;;;;4.10;3.70;;;12.10;99.90;;;;;;4900133;29;20467;-69
2021/10/25 11:57:28;;;;;;;3.80;3.60;;;12.20;99.90;;;;;;4927043;29;20951;-69
2021/10/25 11:59:57;;;;;;;3.97;3.83;;;12.10;99.90;;;;;;4927139;29;20466;-70
2021/10/25 12:02:25;;;;;;;4.35;3.85;;;12.10;99.90;;;;;;4933373;29;20213;-70
2021/10/25 12:04:52;;;;;;;3.90;3.80;;;12.10;99.90;;;;;;4933836;29;20213;-70
2021/10/25 12:07:19;;;;;;;3.70;3.60;;;12.10;99.90;;;;;;4928276;29;20606;-70
2021/10/25 12:09:46;;;;;;;5.43;3.87;;;12.20;99.90;;;;;;4914882;29;20302;-70
2021/10/25 12:12:15;;;;;;;4.03;3.83;;;12.30;99.90;;;;;;4921663;29;20469;-70
2021/10/25 12:14:44;;;;;;;3.57;3.37;;;12.30;99.90;;;;;;4918146;29;21065;-69
2021/10/25 12:17:15;;;;;;;3.65;3.55;;;12.30;99.90;;;;;;4914818;29;20533;-70
2021/10/25 12:19:43;;;;;;;4.47;4.17;;;12.40;99.90;;;;;;4914257;29;20221;-71
2021/10/25 12:22:16;;;;;;;3.87;3.57;;;12.50;99.90;;;;;;4914582;29;20467;-70
2021/10/25 12:24:45;;;;;;;4.20;3.80;;;12.50;99.90;;;;;;4909840;29;20574;-69
2021/10/25 12:27:21;;;;;;;3.60;3.50;;;12.60;99.90;;;;;;4914589;29;20589;-71
2021/10/25 12:29:58;;;;;;;4.00;3.30;;;12.70;99.90;;;;;;4913301;29;20466;-71
2021/10/25 12:32:25;;;;;;;3.30;3.20;;;12.90;99.90;;;;;;4914299;29;20466;-70
2021/10/25 12:34:54;;;;;;;3.60;3.50;;;12.90;99.90;;;;;;4914438;29;20494;-71
2021/10/25 12:37:22;;;;;;;4.07;3.87;;;13.00;99.90;;;;;;4915180;29;20804;-70
2021/10/25 12:39:49;;;;;;;7.00;3.70;;;13.10;99.90;;;;;;4914342;29;20944;-70
2021/10/25 12:42:17;;;;;;;4.00;3.70;;;13.10;99.90;;;;;;4914430;29;20541;-71
2021/10/25 12:44:47;;;;;;;4.67;4.27;;;13.10;99.90;;;;;;4916355;29;20951;-70
2021/10/25 12:47:19;;;;;;;9.30;3.63;;;13.10;99.90;;;;;;4925205;29;20492;-68
2021/10/25 12:49:47;;;;;;;5.40;3.77;;;13.20;99.90;;;;;;4934133;29;20470;-69
2021/10/25 12:52:14;;;;;;;4.23;3.93;;;13.30;99.90;;;;;;4936973;29;20547;-70
2021/10/25 12:54:42;;;;;;;3.80;3.50;;;13.30;99.90;;;;;;4929993;29;20860;-70
2021/10/25 12:57:24;;;;;;;3.53;3.23;;;13.30;99.90;;;;;;4923833;29;20839;-69
2021/10/25 12:59:59;;;;;;;3.90;3.70;;;13.30;99.90;;;;;;4917366;29;20577;-69
2021/10/25 13:02:28;;;;;;;3.90;3.70;;;13.30;99.90;;;;;;4917869;29;20533;-70
2021/10/25 13:05:06;;;;;;;3.67;3.40;;;13.30;99.90;;;;;;4918463;29;20479;-69
2021/10/25 13:07:32;;;;;;;4.20;4.00;;;13.30;99.90;;;;;;4917934;29;20497;-70
2021/10/25 13:09:59;;;;;;;4.43;4.23;;;13.30;99.90;;;;;;4918059;29;20533;-70
2021/10/25 13:12:27;;;;;;;4.63;4.43;;;13.40;99.90;;;;;;4918059;29;20469;-70
2021/10/25 13:14:55;;;;;;;3.87;3.50;;;13.50;99.90;;;;;;4917061;29;20490;-73
2021/10/25 13:17:22;;;;;;;4.27;4.03;;;13.60;99.90;;;;;;4924715;29;20477;-72
2021/10/25 13:19:49;;;;;;;3.10;3.10;;;13.60;99.90;;;;;;4929807;29;20549;-73
2021/10/25 13:22:15;;;;;;;4.03;3.73;;;13.60;99.90;;;;;;4936595;29;20473;-73
2021/10/25 13:24:43;;;;;;;3.20;3.10;;;13.60;99.90;;;;;;4924047;29;20474;-73
2021/10/25 13:27:10;;;;;;;3.47;3.37;;;13.50;99.90;;;;;;4917222;29;20665;-73
2021/10/25 13:29:38;;;;;;;3.13;2.90;;;13.60;99.90;;;;;;4916576;29;20474;-73
2021/10/25 13:32:05;;;;;;;3.57;3.37;;;13.50;99.90;;;;;;4916384;29;20474;-73
2021/10/25 13:34:33;;;;;;;4.00;3.80;;;13.60;99.90;;;;;;4923995;29;20493;-73
2021/10/25 13:37:00;;;;;;;5.73;3.20;;;13.60;99.90;;;;;;4931609;29;20481;-73
2021/10/25 13:39:27;;;;;;;2.47;2.37;;;13.60;99.90;;;;;;4935857;29;20474;-73
2021/10/25 13:41:54;;;;;;;2.93;2.70;;;13.60;99.90;;;;;;4936093;29;20470;-72
2021/10/25 13:44:21;;;;;;;3.30;3.10;;;13.70;99.90;;;;;;4934439;29;20466;-73
2021/10/25 13:46:49;;;;;;;3.00;2.83;;;13.70;99.90;;;;;;4910035;29;20518;-73
2021/10/25 13:49:16;;;;;;;2.73;2.53;;;13.70;99.90;;;;;;4916201;29;20474;-73
2021/10/25 13:51:42;;;;;;;2.77;2.67;;;13.80;99.90;;;;;;4916941;29;20484;-73
2021/10/25 13:54:10;;;;;;;3.13;3.00;;;13.80;99.90;;;;;;4922359;29;20485;-73
2021/10/25 13:56:37;;;;;;;2.80;2.70;;;13.80;99.90;;;;;;4928318;29;20488;-73
2021/10/25 13:59:04;;;;;;;3.40;3.30;;;13.80;99.90;;;;;;4935401;29;20533;-73
2021/10/25 14:01:31;;;;;;;3.57;3.27;;;13.80;99.90;;;;;;4934869;29;20472;-73
2021/10/25 14:04:00;;;;;;;3.40;3.10;;;13.80;99.90;;;;;;4935320;29;20470;-72
2021/10/25 14:06:29;;;;;;;3.07;2.90;;;13.70;99.90;;;;;;4924819;29;20490;-72
2021/10/25 14:08:56;;;;;;;3.30;3.10;;;13.70;99.90;;;;;;4916376;29;20530;-73
2021/10/25 14:11:27;;;;;;;3.07;2.87;;;13.70;99.90;;;;;;4916595;29;20851;-73
2021/10/25 14:14:11;;;;;;;3.30;3.00;;;13.70;99.90;;;;;;4916328;29;20497;-73
2021/10/25 14:16:41;;;;;;;3.50;3.30;;;13.70;99.90;;;;;;4915946;29;20497;-73
2021/10/25 14:19:09;;;;;;;5.83;2.90;;;13.70;99.90;;;;;;4916257;29;20561;-73
2021/10/25 14:21:37;;;;;;;3.43;3.30;;;13.70;99.90;;;;;;4916335;29;20467;-73
2021/10/25 14:24:07;;;;;;;3.63;3.30;;;13.60;99.90;;;;;;4925258;29;20903;-73
2021/10/25 14:26:34;;;;;;;4.30;3.90;;;13.60;99.90;;;;;;4916560;29;20510;-73
2021/10/25 14:29:01;;;;;;;3.00;2.90;;;13.50;99.90;;;;;;4916610;29;20477;-72
2021/10/25 14:31:28;;;;;;;3.40;3.03;;;13.50;99.90;;;;;;4915715;29;20462;-73
2021/10/25 14:33:57;;;;;;;3.83;3.53;;;13.40;99.90;;;;;;4915946;29;20490;-73
2021/10/25 14:36:25;;;;;;;3.53;3.43;;;13.30;99.90;;;;;;4916058;29;20483;-72
2021/10/25 14:39:05;;;;;;;3.70;3.50;;;13.30;99.90;;;;;;4916300;29;20562;-73
2021/10/25 14:41:37;;;;;;;3.87;3.30;;;13.30;99.90;;;;;;4916146;29;20628;-73
2021/10/25 14:44:08;;;;;;;3.70;3.47;;;13.20;99.90;;;;;;4915461;29;20469;-73
2021/10/25 14:46:45;;;;;;;4.00;3.77;;;13.20;99.90;;;;;;4922061;29;21038;-74
2021/10/25 14:49:19;;;;;;;4.00;3.80;;;13.20;99.90;;;;;;4925725;29;20469;-73
2021/10/25 14:54:44;;;;;;;4.00;3.80;;;13.10;99.90;;;;;;4920213;29;20512;-72
2021/10/25 14:57:11;;;;;;;3.63;3.43;;;13.00;99.90;;;;;;4918990;29;20496;-73
2021/10/25 14:59:39;;;;;;;5.10;3.40;;;13.00;99.90;;;;;;4926327;29;20974;-73
2021/10/25 15:02:06;;;;;;;3.70;3.40;;;13.00;99.90;;;;;;4923604;29;20990;-72
2021/10/25 15:04:32;;;;;;;3.80;3.60;;;13.00;99.90;;;;;;4916406;29;20543;-73
2021/10/25 15:07:01;;;;;;;3.97;3.43;;;12.90;99.90;;;;;;4923268;29;20483;-73
2021/10/25 15:09:27;;;;;;;4.40;4.00;;;12.90;99.90;;;;;;4914926;29;20546;-72
2021/10/25 15:11:54;;;;;;;3.73;3.43;;;12.90;99.90;;;;;;4915342;29;20525;-72
2021/10/25 15:14:21;;;;;;;4.00;3.70;;;12.80;99.90;;;;;;4915416;29;20794;-72
2021/10/25 15:16:48;;;;;;;3.40;3.10;;;12.80;99.90;;;;;;4918866;29;20851;-72
2021/10/25 15:19:15;;;;;;;4.23;3.93;;;12.80;99.90;;;;;;4921938;29;20473;-73
2021/10/25 15:21:45;;;;;;;3.53;3.35;;;12.80;99.90;;;;;;4925692;29;20497;-73
2021/10/25 15:24:14;;;;;;;4.30;4.10;;;12.70;99.90;;;;;;4918372;29;20202;-73
2021/10/25 15:26:48;;;;;;;3.47;3.38;;;12.70;99.90;;;;;;4914304;29;20230;-72
2021/10/25 15:29:15;;;;;;;4.57;3.33;;;12.70;99.90;;;;;;4918649;29;20248;-73
2021/10/25 15:31:42;;;;;;;6.70;3.70;;;12.70;99.90;;;;;;4913268;29;20213;-73
2021/10/25 15:34:09;;;;;;;7.50;4.00;;;12.70;99.90;;;;;;4912884;29;20226;-73
2021/10/25 15:36:36;;;;;;;5.00;3.75;;;12.70;99.90;;;;;;4917154;29;20537;-73
2021/10/25 15:39:03;;;;;;;4.18;3.88;;;12.70;99.90;;;;;;4913738;29;20294;-73
2021/10/25 15:41:31;;;;;;;4.10;3.88;;;12.60;99.90;;;;;;4914904;29;20218;-73
2021/10/25 15:43:59;;;;;;;3.92;3.63;;;12.60;99.90;;;;;;4913771;29;20286;-73
2021/10/25 15:46:26;;;;;;;4.87;4.57;;;12.60;99.90;;;;;;4913947;29;20230;-73
2021/10/25 15:48:52;;;;;;;4.15;3.95;;;12.70;99.90;;;;;;4914102;29;21248;-74
2021/10/25 15:51:20;;;;;;;4.10;3.90;;;12.70;99.90;;;;;;4921408;29;20293;-73
2021/10/25 15:53:47;;;;;;;4.35;4.00;;;12.60;99.90;;;;;;4920320;29;20206;-73
2021/10/25 15:56:13;;;;;;;5.63;5.03;;;12.60;99.90;;;;;;4914856;29;20223;-72
2021/10/25 15:58:41;;;;;;;4.63;4.38;;;12.60;99.90;;;;;;4914657;29;20206;-73
2021/10/25 16:01:08;;;;;;;4.72;4.32;;;12.60;99.90;;;;;;4914837;29;20207;-72
2021/10/25 16:03:35;;;;;;;4.68;4.32;;;12.60;99.90;;;;;;4914575;29;20213;-72
2021/10/25 16:06:01;;;;;;;4.50;4.30;;;12.60;99.90;;;;;;4914551;29;20230;-72
2021/10/25 16:08:29;;;;;;;5.90;5.60;;;12.50;99.90;;;;;;4913611;29;20785;-72
2021/10/25 16:10:57;;;;;;;4.47;4.25;;;12.50;99.90;;;;;;4916360;29;20207;-73
2021/10/25 16:13:23;;;;;;;5.00;4.60;;;12.40;99.90;;;;;;4914890;29;20316;-73
2021/10/25 16:15:51;;;;;;;4.45;4.22;;;12.30;99.90;;;;;;4918060;29;20237;-72
2021/10/25 16:18:18;;;;;;;4.70;4.40;;;12.30;99.90;;;;;;4922110;29;20206;-72
2021/10/25 16:20:45;;;;;;;4.95;3.97;;;12.20;99.90;;;;;;4915760;29;20213;-73
2021/10/25 16:23:11;;;;;;;4.68;4.28;;;12.20;99.90;;;;;;4912320;29;20631;-72
2021/10/25 16:25:38;;;;;;;5.78;5.20;;;12.20;99.90;;;;;;4926025;29;20236;-73
2021/10/25 16:28:05;;;;;;;5.53;4.93;;;12.20;99.90;;;;;;4924776;29;20213;-74
2021/10/25 16:30:32;;;;;;;5.53;5.05;;;12.20;99.90;;;;;;4926300;29;20629;-73
2021/10/25 16:33:00;;;;;;;4.30;4.00;;;12.20;99.90;;;;;;4921584;29;20205;-73
2021/10/25 16:35:27;;;;;;;5.05;4.78;;;12.20;99.90;;;;;;4920043;29;20241;-73
2021/10/25 16:37:54;;;;;;;5.82;4.15;;;12.20;99.90;;;;;;4926972;29;20201;-73
2021/10/25 16:40:20;;;;;;;4.28;4.07;;;12.20;99.90;;;;;;4931518;29;20212;-73
2021/10/25 16:42:47;;;;;;;4.43;4.20;;;12.20;99.90;;;;;;4929811;29;20309;-73
2021/10/25 16:45:14;;;;;;;3.83;3.58;;;12.20;99.90;;;;;;4930013;29;20202;-73
2021/10/25 16:47:43;;;;;;;4.35;4.05;;;12.20;99.90;;;;;;4917220;29;20214;-73
2021/10/25 16:50:12;;;;;;;4.05;3.85;;;12.20;99.90;;;;;;4917901;29;20258;-73
2021/10/25 16:52:46;;;;;;;5.38;4.72;;;12.20;99.90;;;;;;4917419;29;20214;-73
2021/10/25 16:55:28;;;;;;;3.92;3.72;;;12.10;99.90;;;;;;4919121;29;20234;-73
2021/10/25 17:06:22;;;;;;;4.13;3.75;;;12.10;99.90;;;;;;4920723;29;20228;-74
2021/10/25 17:11:33;;;;;;;4.15;4.05;;;12.10;99.90;;;;;;4926945;29;20205;-73
2021/10/25 17:13:59;;;;;;;4.78;3.97;;;12.10;99.90;;;;;;4926358;29;20207;-73
2021/10/25 17:16:26;;;;;;;4.78;4.35;;;12.10;99.90;;;;;;4916301;29;20620;-73
2021/10/25 17:18:53;;;;;;;5.43;4.80;;;12.10;99.90;;;;;;4917346;29;20290;-73
2021/10/25 17:21:26;;;;;;;4.90;4.70;;;12.10;99.90;;;;;;4918233;29;20217;-73
2021/10/25 17:23:52;;;;;;;5.65;5.28;;;12.10;99.90;;;;;;4923922;29;20209;-74
2021/10/25 17:26:19;;;;;;;10.05;5.50;;;12.10;99.90;;;;;;4931537;29;20226;-73
2021/10/25 17:28:46;;;;;;;6.13;5.53;;;12.00;99.90;;;;;;4918587;29;20203;-73
2021/10/25 17:31:13;;;;;;;4.80;4.40;;;12.00;99.90;;;;;;4917921;29;20215;-73
2021/10/25 17:33:40;;;;;;;6.10;5.50;;;12.00;99.90;;;;;;4920044;29;20206;-73
2021/10/25 17:36:08;;;;;;;5.10;4.80;;;12.00;99.90;;;;;;4927893;29;20221;-73
2021/10/25 17:38:37;;;;;;;5.72;5.22;;;12.00;99.90;;;;;;4912441;29;20215;-74
2021/10/25 17:41:05;;;;;;;6.03;5.68;;;12.00;99.90;;;;;;4920607;29;20382;-74
2021/10/25 17:43:32;;;;;;;6.07;5.68;;;11.90;99.90;;;;;;4924474;29;20207;-74
2021/10/25 17:46:01;;;;;;;7.97;5.10;;;11.90;99.90;;;;;;4912307;29;20219;-72
2021/10/25 17:48:28;;;;;;;5.75;5.35;;;11.90;99.90;;;;;;4916387;29;20229;-73
2021/10/25 17:50:56;;;;;;;5.90;5.38;;;11.90;99.90;;;;;;4917035;29;20604;-74
2021/10/25 17:53:24;;;;;;;8.05;5.60;;;11.80;99.90;;;;;;4917431;29;20207;-73
2021/10/25 17:55:53;;;;;;;6.07;5.07;;;11.80;99.90;;;;;;4917205;29;20305;-74
2021/10/25 17:58:21;;;;;;;5.32;4.95;;;11.80;99.90;;;;;;4916820;29;20227;-75
2021/10/25 18:00:49;;;;;;;6.20;5.60;;;11.80;99.90;;;;;;4916974;29;20310;-74
2021/10/25 18:03:16;;;;;;;4.75;4.35;;;11.80;99.90;;;;;;4917264;29;20271;-74
2021/10/25 18:05:43;;;;;;;5.25;5.05;;;11.80;99.90;;;;;;4927483;29;20234;-73
2021/10/25 18:08:11;;;;;;;7.25;5.00;;;11.80;99.90;;;;;;4917077;29;20214;-74
2021/10/25 18:10:38;;;;;;;5.70;5.30;;;11.80;99.90;;;;;;4917549;29;20214;-73
2021/10/25 18:13:06;;;;;;;4.40;4.10;;;11.80;99.90;;;;;;4916650;29;20218;-73
2021/10/25 18:15:35;;;;;;;7.38;5.07;;;11.80;99.90;;;;;;4916411;29;20238;-74
2021/10/25 18:18:03;;;;;;;4.70;4.30;;;11.70;99.90;;;;;;4923038;29;20246;-74
2021/10/25 18:20:30;;;;;;;4.28;4.05;;;11.70;99.90;;;;;;4932409;29;20305;-73
2021/10/25 18:22:57;;;;;;;5.05;4.82;;;11.80;99.90;;;;;;4925090;29;20544;-75
2021/10/25 18:25:24;;;;;;;4.68;4.32;;;11.70;99.90;;;;;;4914124;29;20226;-72